sensor_id;sensor_type;location;lat;lon;timestamp;pressure;altitude;pressure_sealevel;temperature;humidity
14790;BME280;7486;51.010;10.366;2024-01-15T00:02:26;96680.34;;;-4.68;87.83
14790;BME280;7486;51.010;10.366;2024-01-15T00:05:11;96674.25;;;-4.67;86.97
14790;BME280;7486;51.010;10.366;2024-01-15T00:07:57;96658.88;;;-4.69;86.92
14790;BME280;7486;51.010;10.366;2024-01-15T00:10:42;96665.69;;;-4.68;86.92
14790;BME280;7486;51.010;10.366;2024-01-15T00:13:28;96669.22;;;-4.69;87.24
14790;BME280;7486;51.010;10.366;2024-01-15T00:16:13;96629.69;;;-4.87;87.05
14790;BME280;7486;51.010;10.366;2024-01-15T00:18:59;96660.22;;;-4.65;86.89
14790;BME280;7486;51.010;10.366;2024-01-15T00:21:45;96648.69;;;-4.53;86.32
14790;BME280;7486;51.010;10.366;2024-01-15T00:24:30;96648.41;;;-4.67;86.31
14790;BME280;7486;51.010;10.366;2024-01-15T00:27:15;96626.38;;;-4.97;87.75
14790;BME280;7486;51.010;10.366;2024-01-15T00:30:01;96652.25;;;-4.71;87.32
14790;BME280;7486;51.010;10.366;2024-01-15T00:32:47;96641.84;;;-4.79;87.34
14790;BME280;7486;51.010;10.366;2024-01-15T00:35:32;96643.03;;;-4.74;86.82
14790;BME280;7486;51.010;10.366;2024-01-15T00:38:18;96633.22;;;-4.70;86.62
14790;BME280;7486;51.010;10.366;2024-01-15T00:41:03;96649.75;;;-4.63;86.72
14790;BME280;7486;51.010;10.366;2024-01-15T00:43:49;96657.84;;;-4.58;86.23
14790;BME280;7486;51.010;10.366;2024-01-15T00:46:42;96658.00;;;-4.60;85.92
14790;BME280;7486;51.010;10.366;2024-01-15T00:49:28;96644.56;;;-4.45;85.54
14790;BME280;7486;51.010;10.366;2024-01-15T00:52:14;96633.31;;;-4.36;84.75
14790;BME280;7486;51.010;10.366;2024-01-15T00:55:00;96642.41;;;-4.24;84.72
14790;BME280;7486;51.010;10.366;2024-01-15T00:57:45;96628.47;;;-4.31;84.25
14790;BME280;7486;51.010;10.366;2024-01-15T01:00:31;96626.41;;;-4.02;84.24
14790;BME280;7486;51.010;10.366;2024-01-15T01:03:17;96627.53;;;-4.05;82.61
14790;BME280;7486;51.010;10.366;2024-01-15T01:06:02;96643.78;;;-4.12;83.80
14790;BME280;7486;51.010;10.366;2024-01-15T01:08:48;96639.31;;;-4.02;83.56
14790;BME280;7486;51.010;10.366;2024-01-15T01:11:33;96615.50;;;-4.14;82.88
14790;BME280;7486;51.010;10.366;2024-01-15T01:14:20;96633.59;;;-3.88;82.63
14790;BME280;7486;51.010;10.366;2024-01-15T01:17:05;96629.38;;;-3.89;82.39
14790;BME280;7486;51.010;10.366;2024-01-15T01:19:51;96622.22;;;-3.95;82.72
14790;BME280;7486;51.010;10.366;2024-01-15T01:22:36;96623.47;;;-4.33;83.84
14790;BME280;7486;51.010;10.366;2024-01-15T01:25:22;96625.00;;;-4.22;83.79
14790;BME280;7486;51.010;10.366;2024-01-15T01:28:07;96602.03;;;-4.51;83.69
14790;BME280;7486;51.010;10.366;2024-01-15T01:30:53;96627.69;;;-4.32;82.99
14790;BME280;7486;51.010;10.366;2024-01-15T01:33:39;96591.63;;;-4.33;82.64
14790;BME280;7486;51.010;10.366;2024-01-15T01:36:24;96610.38;;;-4.31;82.56
14790;BME280;7486;51.010;10.366;2024-01-15T01:39:10;96599.53;;;-4.61;83.50
14790;BME280;7486;51.010;10.366;2024-01-15T01:41:55;96619.06;;;-4.40;83.94
14790;BME280;7486;51.010;10.366;2024-01-15T01:44:41;96612.63;;;-4.36;83.38
14790;BME280;7486;51.010;10.366;2024-01-15T01:47:26;96618.84;;;-4.21;82.80
14790;BME280;7486;51.010;10.366;2024-01-15T01:50:13;96623.16;;;-4.30;83.00
14790;BME280;7486;51.010;10.366;2024-01-15T01:53:00;96607.59;;;-4.38;82.27
14790;BME280;7486;51.010;10.366;2024-01-15T01:55:47;96613.94;;;-4.32;82.17
14790;BME280;7486;51.010;10.366;2024-01-15T01:58:33;96620.09;;;-4.51;83.38
14790;BME280;7486;51.010;10.366;2024-01-15T02:01:20;96625.28;;;-4.51;82.92
14790;BME280;7486;51.010;10.366;2024-01-15T02:04:06;96588.63;;;-4.72;83.30
14790;BME280;7486;51.010;10.366;2024-01-15T02:06:52;96598.63;;;-4.52;83.02
14790;BME280;7486;51.010;10.366;2024-01-15T02:09:38;96616.06;;;-4.54;83.72
14790;BME280;7486;51.010;10.366;2024-01-15T02:12:23;96615.63;;;-4.49;82.79
14790;BME280;7486;51.010;10.366;2024-01-15T02:15:09;96553.47;;;-4.91;82.84
14790;BME280;7486;51.010;10.366;2024-01-15T02:17:59;96563.91;;;-4.75;82.95
14790;BME280;7486;51.010;10.366;2024-01-15T02:20:45;96625.53;;;-4.36;82.56
14790;BME280;7486;51.010;10.366;2024-01-15T02:23:30;96637.22;;;-4.32;81.90
14790;BME280;7486;51.010;10.366;2024-01-15T02:26:15;96629.31;;;-4.49;82.29
14790;BME280;7486;51.010;10.366;2024-01-15T02:29:01;96640.03;;;-4.43;82.84
14790;BME280;7486;51.010;10.366;2024-01-15T02:31:47;96619.00;;;-4.49;82.66
14790;BME280;7486;51.010;10.366;2024-01-15T02:34:33;96630.66;;;-4.44;83.44
14790;BME280;7486;51.010;10.366;2024-01-15T02:37:18;96613.94;;;-4.32;81.84
14790;BME280;7486;51.010;10.366;2024-01-15T02:40:04;96615.09;;;-4.27;81.22
14790;BME280;7486;51.010;10.366;2024-01-15T02:42:50;96631.41;;;-4.52;82.65
14790;BME280;7486;51.010;10.366;2024-01-15T02:45:36;96627.72;;;-4.50;82.67
14790;BME280;7486;51.010;10.366;2024-01-15T02:48:21;96644.09;;;-4.59;83.16
14790;BME280;7486;51.010;10.366;2024-01-15T02:51:07;96614.50;;;-4.90;84.02
14790;BME280;7486;51.010;10.366;2024-01-15T02:53:52;96636.16;;;-4.65;84.20
14790;BME280;7486;51.010;10.366;2024-01-15T02:56:38;96635.50;;;-4.85;85.09
14790;BME280;7486;51.010;10.366;2024-01-15T02:59:23;96634.78;;;-4.77;84.86
14790;BME280;7486;51.010;10.366;2024-01-15T03:02:09;96629.31;;;-4.74;84.70
14790;BME280;7486;51.010;10.366;2024-01-15T03:04:54;96615.03;;;-4.61;84.18
14790;BME280;7486;51.010;10.366;2024-01-15T03:07:40;96609.84;;;-4.86;84.64
14790;BME280;7486;51.010;10.366;2024-01-15T03:10:25;96630.53;;;-4.61;84.22
14790;BME280;7486;51.010;10.366;2024-01-15T03:13:10;96633.25;;;-4.62;84.17
14790;BME280;7486;51.010;10.366;2024-01-15T03:15:56;96597.06;;;-4.88;83.80
14790;BME280;7486;51.010;10.366;2024-01-15T03:18:42;96632.31;;;-4.79;85.19
14790;BME280;7486;51.010;10.366;2024-01-15T03:21:27;96638.38;;;-4.70;84.86
14790;BME280;7486;51.010;10.366;2024-01-15T03:24:13;96614.63;;;-5.09;84.78
14790;BME280;7486;51.010;10.366;2024-01-15T03:26:58;96635.72;;;-4.96;85.86
14790;BME280;7486;51.010;10.366;2024-01-15T03:29:44;96638.81;;;-4.75;84.94
14790;BME280;7486;51.010;10.366;2024-01-15T03:32:29;96654.31;;;-4.75;84.25
14790;BME280;7486;51.010;10.366;2024-01-15T03:35:15;96644.41;;;-4.62;84.68
14790;BME280;7486;51.010;10.366;2024-01-15T03:38:01;96653.19;;;-4.72;84.81
14790;BME280;7486;51.010;10.366;2024-01-15T03:40:46;96640.44;;;-4.74;84.65
14790;BME280;7486;51.010;10.366;2024-01-15T03:43:32;96643.47;;;-4.61;84.69
14790;BME280;7486;51.010;10.366;2024-01-15T03:46:18;96629.94;;;-4.55;83.77
14790;BME280;7486;51.010;10.366;2024-01-15T03:49:03;96627.63;;;-4.83;84.52
14790;BME280;7486;51.010;10.366;2024-01-15T03:51:49;96635.50;;;-5.03;84.75
14790;BME280;7486;51.010;10.366;2024-01-15T03:54:34;96635.59;;;-4.94;85.06
14790;BME280;7486;51.010;10.366;2024-01-15T03:57:20;96627.63;;;-5.01;85.67
14790;BME280;7486;51.010;10.366;2024-01-15T04:00:07;96637.44;;;-5.05;85.82
14790;BME280;7486;51.010;10.366;2024-01-15T04:02:52;96634.25;;;-4.81;85.07
14790;BME280;7486;51.010;10.366;2024-01-15T04:05:38;96592.56;;;-4.86;84.38
14790;BME280;7486;51.010;10.366;2024-01-15T04:08:23;96635.28;;;-4.74;84.07
14790;BME280;7486;51.010;10.366;2024-01-15T04:11:09;96578.56;;;-5.01;83.93
14790;BME280;7486;51.010;10.366;2024-01-15T04:13:55;96623.84;;;-4.89;84.40
14790;BME280;7486;51.010;10.366;2024-01-15T04:16:40;96622.59;;;-4.85;84.71
14790;BME280;7486;51.010;10.366;2024-01-15T04:19:26;96633.75;;;-4.84;84.59
14790;BME280;7486;51.010;10.366;2024-01-15T04:22:13;96620.31;;;-4.70;84.46
14790;BME280;7486;51.010;10.366;2024-01-15T04:24:58;96638.44;;;-4.62;83.69
14790;BME280;7486;51.010;10.366;2024-01-15T04:27:44;96638.88;;;-4.49;84.05
14790;BME280;7486;51.010;10.366;2024-01-15T04:30:29;96634.69;;;-4.68;83.76
14790;BME280;7486;51.010;10.366;2024-01-15T04:33:16;96638.50;;;-4.72;84.16
14790;BME280;7486;51.010;10.366;2024-01-15T04:36:03;96649.56;;;-4.62;84.27
14790;BME280;7486;51.010;10.366;2024-01-15T04:38:49;96639.84;;;-4.68;85.28
14790;BME280;7486;51.010;10.366;2024-01-15T04:41:34;96635.91;;;-4.54;84.49
14790;BME280;7486;51.010;10.366;2024-01-15T04:44:20;96636.94;;;-4.47;84.29
14790;BME280;7486;51.010;10.366;2024-01-15T04:47:05;96633.91;;;-4.42;83.33
14790;BME280;7486;51.010;10.366;2024-01-15T04:49:51;96641.81;;;-4.18;83.61
14790;BME280;7486;51.010;10.366;2024-01-15T04:52:36;96643.81;;;-4.04;82.97
14790;BME280;7486;51.010;10.366;2024-01-15T04:55:22;96610.00;;;-4.11;82.45
14790;BME280;7486;51.010;10.366;2024-01-15T04:58:08;96613.28;;;-4.01;81.61
14790;BME280;7486;51.010;10.366;2024-01-15T05:00:53;96630.81;;;-3.86;81.37
14790;BME280;7486;51.010;10.366;2024-01-15T05:03:39;96628.31;;;-4.04;82.45
14790;BME280;7486;51.010;10.366;2024-01-15T05:06:24;96599.16;;;-4.22;82.31
14790;BME280;7486;51.010;10.366;2024-01-15T05:09:10;96636.53;;;-4.09;82.66
14790;BME280;7486;51.010;10.366;2024-01-15T05:11:55;96642.03;;;-4.12;82.73
14790;BME280;7486;51.010;10.366;2024-01-15T05:14:42;96584.44;;;-4.47;82.72
14790;BME280;7486;51.010;10.366;2024-01-15T05:17:27;96612.88;;;-4.22;82.27
14790;BME280;7486;51.010;10.366;2024-01-15T05:20:13;96627.22;;;-4.27;82.85
14790;BME280;7486;51.010;10.366;2024-01-15T05:22:58;96592.88;;;-4.45;82.88
14790;BME280;7486;51.010;10.366;2024-01-15T05:25:44;96599.44;;;-4.25;82.60
14790;BME280;7486;51.010;10.366;2024-01-15T05:28:29;96608.28;;;-4.02;81.93
14790;BME280;7486;51.010;10.366;2024-01-15T05:31:15;96605.66;;;-4.10;82.15
14790;BME280;7486;51.010;10.366;2024-01-15T05:34:01;96597.44;;;-4.39;82.59
14790;BME280;7486;51.010;10.366;2024-01-15T05:36:46;96530.75;;;-4.62;82.62
14790;BME280;7486;51.010;10.366;2024-01-15T05:39:32;96591.28;;;-4.13;82.01
14790;BME280;7486;51.010;10.366;2024-01-15T05:42:18;96576.50;;;-4.28;82.51
14790;BME280;7486;51.010;10.366;2024-01-15T05:45:04;96581.94;;;-4.31;82.93
14790;BME280;7486;51.010;10.366;2024-01-15T05:47:50;96552.63;;;-4.48;83.03
14790;BME280;7486;51.010;10.366;2024-01-15T05:50:35;96567.69;;;-4.43;83.54
14790;BME280;7486;51.010;10.366;2024-01-15T05:53:21;96562.00;;;-4.47;84.04
14790;BME280;7486;51.010;10.366;2024-01-15T05:56:07;96529.91;;;-4.70;83.40
14790;BME280;7486;51.010;10.366;2024-01-15T05:58:52;96534.19;;;-4.53;83.28
14790;BME280;7486;51.010;10.366;2024-01-15T06:01:38;96555.56;;;-4.43;83.16
14790;BME280;7486;51.010;10.366;2024-01-15T06:04:24;96547.94;;;-4.53;83.33
14790;BME280;7486;51.010;10.366;2024-01-15T06:07:09;96512.19;;;-4.91;84.00
14790;BME280;7486;51.010;10.366;2024-01-15T06:09:55;96558.16;;;-4.69;83.46
14790;BME280;7486;51.010;10.366;2024-01-15T06:12:40;96554.41;;;-4.74;84.20
14790;BME280;7486;51.010;10.366;2024-01-15T06:15:26;96567.53;;;-4.68;83.90
14790;BME280;7486;51.010;10.366;2024-01-15T06:18:11;96553.84;;;-4.60;82.90
14790;BME280;7486;51.010;10.366;2024-01-15T06:20:57;96553.38;;;-4.81;84.47
14790;BME280;7486;51.010;10.366;2024-01-15T06:23:43;96542.22;;;-4.90;83.94
14790;BME280;7486;51.010;10.366;2024-01-15T06:26:28;96553.94;;;-4.95;84.96
14790;BME280;7486;51.010;10.366;2024-01-15T06:29:14;96546.66;;;-4.74;84.55
14790;BME280;7486;51.010;10.366;2024-01-15T06:31:59;96566.59;;;-4.59;83.80
14790;BME280;7486;51.010;10.366;2024-01-15T06:34:45;96571.94;;;-4.60;83.65
14790;BME280;7486;51.010;10.366;2024-01-15T06:37:30;96566.34;;;-4.56;83.72
14790;BME280;7486;51.010;10.366;2024-01-15T06:40:16;96572.91;;;-4.61;83.26
14790;BME280;7486;51.010;10.366;2024-01-15T06:43:01;96525.72;;;-4.89;83.75
14790;BME280;7486;51.010;10.366;2024-01-15T06:45:47;96562.16;;;-4.74;84.14
14790;BME280;7486;51.010;10.366;2024-01-15T06:48:32;96536.31;;;-4.74;83.85
14790;BME280;7486;51.010;10.366;2024-01-15T06:51:18;96562.50;;;-4.43;82.91
14790;BME280;7486;51.010;10.366;2024-01-15T06:54:03;96561.56;;;-4.42;83.07
14790;BME280;7486;51.010;10.366;2024-01-15T06:56:50;96570.91;;;-4.41;83.14
14790;BME280;7486;51.010;10.366;2024-01-15T06:59:35;96573.28;;;-4.48;83.34
14790;BME280;7486;51.010;10.366;2024-01-15T07:02:21;96581.41;;;-4.43;83.23
14790;BME280;7486;51.010;10.366;2024-01-15T07:05:07;96585.66;;;-4.34;83.66
14790;BME280;7486;51.010;10.366;2024-01-15T07:07:52;96589.81;;;-4.15;82.70
14790;BME280;7486;51.010;10.366;2024-01-15T07:10:38;96590.03;;;-4.01;81.91
14790;BME280;7486;51.010;10.366;2024-01-15T07:13:23;96587.44;;;-4.01;81.80
14790;BME280;7486;51.010;10.366;2024-01-15T07:16:09;96586.59;;;-4.09;81.13
14790;BME280;7486;51.010;10.366;2024-01-15T07:18:54;96586.97;;;-4.30;82.16
14790;BME280;7486;51.010;10.366;2024-01-15T07:21:40;96585.25;;;-4.47;82.83
14790;BME280;7486;51.010;10.366;2024-01-15T07:24:25;96575.94;;;-4.40;83.01
14790;BME280;7486;51.010;10.366;2024-01-15T07:27:11;96595.41;;;-4.54;83.62
14790;BME280;7486;51.010;10.366;2024-01-15T07:29:57;96601.88;;;-4.50;83.22
14790;BME280;7486;51.010;10.366;2024-01-15T07:32:46;96571.19;;;-4.53;83.15
14790;BME280;7486;51.010;10.366;2024-01-15T07:35:32;96586.78;;;-4.36;82.36
14790;BME280;7486;51.010;10.366;2024-01-15T07:38:18;96592.03;;;-4.20;81.76
14790;BME280;7486;51.010;10.366;2024-01-15T07:41:03;96595.84;;;-4.32;81.51
14790;BME280;7486;51.010;10.366;2024-01-15T07:43:48;96590.38;;;-4.55;81.97
14790;BME280;7486;51.010;10.366;2024-01-15T07:46:34;96603.13;;;-4.28;81.45
14790;BME280;7486;51.010;10.366;2024-01-15T07:49:19;96592.72;;;-4.44;81.54
14790;BME280;7486;51.010;10.366;2024-01-15T07:52:05;96614.84;;;-4.41;81.78
14790;BME280;7486;51.010;10.366;2024-01-15T07:54:50;96600.13;;;-4.49;82.13
14790;BME280;7486;51.010;10.366;2024-01-15T07:57:36;96614.06;;;-4.42;82.28
14790;BME280;7486;51.010;10.366;2024-01-15T08:00:21;96616.72;;;-4.26;82.18
14790;BME280;7486;51.010;10.366;2024-01-15T08:03:07;96610.06;;;-4.03;80.65
14790;BME280;7486;51.010;10.366;2024-01-15T08:05:52;96594.38;;;-4.09;80.54
14790;BME280;7486;51.010;10.366;2024-01-15T08:08:38;96596.31;;;-4.11;80.91
14790;BME280;7486;51.010;10.366;2024-01-15T08:11:23;96609.63;;;-3.98;80.67
14790;BME280;7486;51.010;10.366;2024-01-15T08:14:10;96597.50;;;-3.97;81.52
14790;BME280;7486;51.010;10.366;2024-01-15T08:16:55;96591.88;;;-3.85;80.84
14790;BME280;7486;51.010;10.366;2024-01-15T08:19:41;96584.63;;;-3.81;80.47
14790;BME280;7486;51.010;10.366;2024-01-15T08:22:27;96600.16;;;-3.73;80.52
14790;BME280;7486;51.010;10.366;2024-01-15T08:25:16;96590.38;;;-3.54;80.16
14790;BME280;7486;51.010;10.366;2024-01-15T08:28:01;96592.47;;;-3.49;79.96
14790;BME280;7486;51.010;10.366;2024-01-15T08:30:46;96579.41;;;-3.48;79.83
14790;BME280;7486;51.010;10.366;2024-01-15T08:33:32;96573.25;;;-3.47;80.14
14790;BME280;7486;51.010;10.366;2024-01-15T08:36:18;96543.09;;;-3.72;79.35
14790;BME280;7486;51.010;10.366;2024-01-15T08:39:03;96589.31;;;-3.27;78.99
14790;BME280;7486;51.010;10.366;2024-01-15T08:41:49;96584.09;;;-3.35;78.05
14790;BME280;7486;51.010;10.366;2024-01-15T08:44:34;96580.03;;;-3.46;78.87
14790;BME280;7486;51.010;10.366;2024-01-15T08:47:20;96582.53;;;-3.20;78.31
14790;BME280;7486;51.010;10.366;2024-01-15T08:50:06;96526.31;;;-3.52;77.27
14790;BME280;7486;51.010;10.366;2024-01-15T08:52:52;96605.47;;;-3.25;77.99
14790;BME280;7486;51.010;10.366;2024-01-15T08:55:38;96605.59;;;-3.42;78.79
14790;BME280;7486;51.010;10.366;2024-01-15T08:58:23;96611.09;;;-3.46;79.13
14790;BME280;7486;51.010;10.366;2024-01-15T09:01:09;96609.34;;;-3.37;78.99
14790;BME280;7486;51.010;10.366;2024-01-15T09:03:55;96607.13;;;-3.16;78.60
14790;BME280;7486;51.010;10.366;2024-01-15T09:06:40;96615.94;;;-3.51;79.98
14790;BME280;7486;51.010;10.366;2024-01-15T09:09:25;96586.03;;;-3.53;79.11
14790;BME280;7486;51.010;10.366;2024-01-15T09:12:11;96594.56;;;-3.53;79.46
14790;BME280;7486;51.010;10.366;2024-01-15T09:14:56;96576.44;;;-3.53;79.37
14790;BME280;7486;51.010;10.366;2024-01-15T09:17:41;96595.25;;;-3.51;79.71
14790;BME280;7486;51.010;10.366;2024-01-15T09:20:27;96592.38;;;-3.39;78.66
14790;BME280;7486;51.010;10.366;2024-01-15T09:23:12;96593.56;;;-3.68;79.94
14790;BME280;7486;51.010;10.366;2024-01-15T09:25:57;96595.69;;;-3.55;79.68
14790;BME280;7486;51.010;10.366;2024-01-15T09:28:43;96604.97;;;-3.28;79.36
14790;BME280;7486;51.010;10.366;2024-01-15T09:31:28;96609.84;;;-3.25;79.72
14790;BME280;7486;51.010;10.366;2024-01-15T09:34:14;96604.22;;;-3.13;78.82
14790;BME280;7486;51.010;10.366;2024-01-15T09:37:01;96606.78;;;-3.29;79.16
14790;BME280;7486;51.010;10.366;2024-01-15T09:39:46;96607.22;;;-3.41;79.75
14790;BME280;7486;51.010;10.366;2024-01-15T09:42:32;96614.06;;;-3.32;79.83
14790;BME280;7486;51.010;10.366;2024-01-15T09:45:18;96606.97;;;-3.22;79.41
14790;BME280;7486;51.010;10.366;2024-01-15T09:48:04;96606.19;;;-2.99;79.10
14790;BME280;7486;51.010;10.366;2024-01-15T09:50:50;96554.19;;;-3.37;78.75
14790;BME280;7486;51.010;10.366;2024-01-15T09:53:36;96609.59;;;-2.82;78.48
14790;BME280;7486;51.010;10.366;2024-01-15T09:56:23;96610.22;;;-2.96;77.97
14790;BME280;7486;51.010;10.366;2024-01-15T09:59:09;96575.91;;;-2.82;77.25
14790;BME280;7486;51.010;10.366;2024-01-15T10:01:55;96612.34;;;-2.59;77.08
14790;BME280;7486;51.010;10.366;2024-01-15T10:04:41;96610.56;;;-2.75;76.77
14790;BME280;7486;51.010;10.366;2024-01-15T10:07:29;96611.53;;;-2.76;76.61
14790;BME280;7486;51.010;10.366;2024-01-15T10:10:15;96603.09;;;-2.62;76.54
14790;BME280;7486;51.010;10.366;2024-01-15T10:13:00;96603.28;;;-2.71;76.32
14790;BME280;7486;51.010;10.366;2024-01-15T10:15:46;96573.00;;;-2.95;76.76
14790;BME280;7486;51.010;10.366;2024-01-15T10:18:32;96599.22;;;-2.82;77.81
14790;BME280;7486;51.010;10.366;2024-01-15T10:21:18;96593.06;;;-2.65;77.04
14790;BME280;7486;51.010;10.366;2024-01-15T10:24:04;96589.50;;;-2.80;77.15
14790;BME280;7486;51.010;10.366;2024-01-15T10:26:49;96601.81;;;-2.82;77.69
14790;BME280;7486;51.010;10.366;2024-01-15T10:29:34;96598.44;;;-2.74;76.78
14790;BME280;7486;51.010;10.366;2024-01-15T10:32:20;96594.03;;;-2.74;77.61
14790;BME280;7486;51.010;10.366;2024-01-15T10:35:07;96591.28;;;-2.72;77.38
14790;BME280;7486;51.010;10.366;2024-01-15T10:37:52;96590.94;;;-2.77;77.73
14790;BME280;7486;51.010;10.366;2024-01-15T10:40:38;96570.72;;;-2.82;77.11
14790;BME280;7486;51.010;10.366;2024-01-15T10:43:23;96567.47;;;-2.76;77.24
14790;BME280;7486;51.010;10.366;2024-01-15T10:46:13;96592.25;;;-2.65;77.81
14790;BME280;7486;51.010;10.366;2024-01-15T10:48:58;96576.88;;;-2.83;78.12
14790;BME280;7486;51.010;10.366;2024-01-15T10:51:44;96576.06;;;-2.75;77.78
14790;BME280;7486;51.010;10.366;2024-01-15T10:54:30;96576.22;;;-2.61;77.02
14790;BME280;7486;51.010;10.366;2024-01-15T10:57:17;96565.69;;;-2.59;76.62
14790;BME280;7486;51.010;10.366;2024-01-15T11:00:06;96562.16;;;-2.74;77.98
14790;BME280;7486;51.010;10.366;2024-01-15T11:02:52;96519.53;;;-2.72;77.31
14790;BME280;7486;51.010;10.366;2024-01-15T11:05:38;96561.47;;;-2.52;77.44
14790;BME280;7486;51.010;10.366;2024-01-15T11:08:24;96559.84;;;-2.53;77.09
14790;BME280;7486;51.010;10.366;2024-01-15T11:11:10;96555.09;;;-2.25;76.48
14790;BME280;7486;51.010;10.366;2024-01-15T11:13:56;96549.88;;;-2.17;75.49
14790;BME280;7486;51.010;10.366;2024-01-15T11:16:55;96547.00;;;-2.30;75.87
14790;BME280;7486;51.010;10.366;2024-01-15T11:25:18;96532.47;;;-2.48;76.90
14790;BME280;7486;51.010;10.366;2024-01-15T11:28:04;96519.03;;;-2.51;76.90
14790;BME280;7486;51.010;10.366;2024-01-15T11:30:49;96532.41;;;-2.31;76.47
14790;BME280;7486;51.010;10.366;2024-01-15T11:33:35;96536.66;;;-2.38;76.91
14790;BME280;7486;51.010;10.366;2024-01-15T11:36:21;96534.84;;;-2.30;77.04
14790;BME280;7486;51.010;10.366;2024-01-15T11:42:15;96537.66;;;-2.56;78.96
14790;BME280;7486;51.010;10.366;2024-01-15T11:45:00;96533.91;;;-2.53;79.28
14790;BME280;7486;51.010;10.366;2024-01-15T11:48:13;96494.94;;;-2.76;79.62
14790;BME280;7486;51.010;10.366;2024-01-15T11:51:00;96531.94;;;-2.43;79.49
14790;BME280;7486;51.010;10.366;2024-01-15T11:53:48;96517.59;;;-2.54;79.19
14790;BME280;7486;51.010;10.366;2024-01-15T11:56:38;96517.38;;;-2.44;80.14
14790;BME280;7486;51.010;10.366;2024-01-15T11:59:24;96504.06;;;-2.33;79.00
14790;BME280;7486;51.010;10.366;2024-01-15T12:02:10;96516.66;;;-2.22;78.52
14790;BME280;7486;51.010;10.366;2024-01-15T12:04:55;96506.59;;;-2.17;78.27
14790;BME280;7486;51.010;10.366;2024-01-15T12:07:42;96515.69;;;-2.13;78.59
14790;BME280;7486;51.010;10.366;2024-01-15T12:10:27;96493.38;;;-2.30;79.02
14790;BME280;7486;51.010;10.366;2024-01-15T12:13:14;96473.59;;;-2.31;79.47
14790;BME280;7486;51.010;10.366;2024-01-15T12:16:01;96501.63;;;-2.34;80.50
14790;BME280;7486;51.010;10.366;2024-01-15T12:18:47;96479.63;;;-2.38;80.74
14790;BME280;7486;51.010;10.366;2024-01-15T12:21:33;96493.78;;;-2.10;80.37
14790;BME280;7486;51.010;10.366;2024-01-15T12:24:18;96475.31;;;-2.15;79.81
14790;BME280;7486;51.010;10.366;2024-01-15T12:27:04;96482.44;;;-2.17;79.59
14790;BME280;7486;51.010;10.366;2024-01-15T12:29:49;96499.81;;;-2.26;79.32
14790;BME280;7486;51.010;10.366;2024-01-15T12:32:35;96469.09;;;-2.37;79.48
14790;BME280;7486;51.010;10.366;2024-01-15T12:35:20;96509.69;;;-2.21;79.99
14790;BME280;7486;51.010;10.366;2024-01-15T12:38:06;96459.97;;;-2.33;79.25
14790;BME280;7486;51.010;10.366;2024-01-15T12:40:52;96493.25;;;-2.53;81.20
14790;BME280;7486;51.010;10.366;2024-01-15T12:43:38;96483.22;;;-2.56;82.26
14790;BME280;7486;51.010;10.366;2024-01-15T12:46:23;96426.47;;;-2.81;83.07
14790;BME280;7486;51.010;10.366;2024-01-15T12:49:09;96482.34;;;-2.32;82.68
14790;BME280;7486;51.010;10.366;2024-01-15T12:51:57;96483.16;;;-2.39;82.89
14790;BME280;7486;51.010;10.366;2024-01-15T12:54:42;96484.78;;;-2.38;82.26
14790;BME280;7486;51.010;10.366;2024-01-15T12:57:28;96479.06;;;-2.65;82.99
14790;BME280;7486;51.010;10.366;2024-01-15T13:00:14;96492.13;;;-2.50;82.71
14790;BME280;7486;51.010;10.366;2024-01-15T13:03:01;96498.16;;;-2.74;83.64
14790;BME280;7486;51.010;10.366;2024-01-15T13:05:47;96503.81;;;-2.62;83.81
14790;BME280;7486;51.010;10.366;2024-01-15T13:08:32;96499.97;;;-2.74;84.13
14790;BME280;7486;51.010;10.366;2024-01-15T13:11:18;96504.91;;;-2.49;83.29
14790;BME280;7486;51.010;10.366;2024-01-15T13:14:04;96503.63;;;-2.53;83.20
14790;BME280;7486;51.010;10.366;2024-01-15T13:16:49;96507.84;;;-2.43;82.56
14790;BME280;7486;51.010;10.366;2024-01-15T13:19:34;96513.03;;;-2.52;82.19
14790;BME280;7486;51.010;10.366;2024-01-15T13:22:20;96517.41;;;-2.52;82.01
14790;BME280;7486;51.010;10.366;2024-01-15T13:25:07;96518.41;;;-2.69;83.01
14790;BME280;7486;51.010;10.366;2024-01-15T13:27:54;96510.09;;;-2.57;82.66
14790;BME280;7486;51.010;10.366;2024-01-15T13:30:39;96509.56;;;-2.36;81.37
14790;BME280;7486;51.010;10.366;2024-01-15T13:33:25;96500.25;;;-2.61;82.32
14790;BME280;7486;51.010;10.366;2024-01-15T13:36:11;96495.22;;;-2.55;81.73
14790;BME280;7486;51.010;10.366;2024-01-15T13:38:56;96470.47;;;-2.73;81.32
14790;BME280;7486;51.010;10.366;2024-01-15T13:41:42;96512.31;;;-2.29;81.39
14790;BME280;7486;51.010;10.366;2024-01-15T13:44:28;96516.78;;;-2.07;80.23
14790;BME280;7486;51.010;10.366;2024-01-15T13:47:13;96513.00;;;-1.97;79.79
14790;BME280;7486;51.010;10.366;2024-01-15T13:49:59;96513.41;;;-1.85;79.27
14790;BME280;7486;51.010;10.366;2024-01-15T13:52:45;96498.97;;;-2.10;78.98
14790;BME280;7486;51.010;10.366;2024-01-15T13:55:31;96501.31;;;-2.31;79.51
14790;BME280;7486;51.010;10.366;2024-01-15T13:58:17;96503.06;;;-2.24;79.69
14790;BME280;7486;51.010;10.366;2024-01-15T14:01:04;96522.19;;;-2.25;80.58
14790;BME280;7486;51.010;10.366;2024-01-15T14:03:50;96532.94;;;-2.60;82.37
14790;BME280;7486;51.010;10.366;2024-01-15T14:06:35;96530.50;;;-2.46;83.24
14790;BME280;7486;51.010;10.366;2024-01-15T14:09:21;96529.84;;;-2.39;83.95
14790;BME280;7486;51.010;10.366;2024-01-15T14:12:07;96522.38;;;-2.34;84.45
14790;BME280;7486;51.010;10.366;2024-01-15T14:14:52;96531.41;;;-2.22;84.12
14790;BME280;7486;51.010;10.366;2024-01-15T14:17:38;96541.41;;;-2.03;83.47
14790;BME280;7486;51.010;10.366;2024-01-15T14:20:23;96542.56;;;-2.14;82.58
14790;BME280;7486;51.010;10.366;2024-01-15T14:23:09;96546.19;;;-2.23;83.66
14790;BME280;7486;51.010;10.366;2024-01-15T14:25:55;96537.16;;;-1.96;81.44
14790;BME280;7486;51.010;10.366;2024-01-15T14:28:41;96553.03;;;-1.91;80.30
14790;BME280;7486;51.010;10.366;2024-01-15T14:31:26;96543.38;;;-2.13;80.59
14790;BME280;7486;51.010;10.366;2024-01-15T14:34:12;96552.72;;;-1.96;80.52
14790;BME280;7486;51.010;10.366;2024-01-15T14:36:58;96554.38;;;-2.03;79.75
14790;BME280;7486;51.010;10.366;2024-01-15T14:39:43;96540.72;;;-1.97;78.92
14790;BME280;7486;51.010;10.366;2024-01-15T14:42:30;96571.03;;;-1.89;78.58
14790;BME280;7486;51.010;10.366;2024-01-15T14:45:16;96556.50;;;-2.07;79.24
14790;BME280;7486;51.010;10.366;2024-01-15T14:48:01;96546.66;;;-2.19;79.61